createdAt,value
2023-04-18T00:01:40.388Z,86.59
2023-04-18T00:04:09.104Z,86.77
2023-04-18T00:06:37.314Z,86.36
2023-04-18T00:09:05.470Z,85.76
2023-04-18T00:11:34.650Z,86.17
2023-04-18T00:14:03.500Z,87.82
2023-04-18T00:16:34.403Z,88.24
2023-04-18T00:19:03.687Z,88.01
2023-04-18T00:21:33.213Z,88.08
2023-04-18T00:24:01.157Z,88.04
2023-04-18T00:26:29.163Z,87.29
2023-04-18T00:28:58.530Z,87.37
2023-04-18T00:31:26.679Z,87.31
2023-04-18T00:33:54.630Z,87.23
2023-04-18T00:36:24.824Z,87.57
2023-04-18T00:38:52.812Z,87.36
2023-04-18T00:41:22.586Z,87.56
2023-04-18T00:43:50.617Z,87.61
2023-04-18T00:46:18.468Z,88.08
2023-04-18T00:48:48.137Z,87.84
2023-04-18T00:51:16.000Z,87.40
2023-04-18T00:53:44.897Z,87.74
2023-04-18T00:56:12.963Z,88.06
2023-04-18T00:58:41.191Z,87.32
2023-04-18T01:01:09.852Z,87.72
2023-04-18T01:03:39.801Z,87.27
2023-04-18T01:06:08.156Z,87.38
2023-04-18T01:08:36.646Z,87.71
2023-04-18T01:11:04.698Z,87.05
2023-04-18T01:13:32.538Z,86.65
2023-04-18T01:16:00.583Z,86.99
2023-04-18T01:18:31.717Z,86.85
2023-04-18T01:21:00.583Z,86.88
2023-04-18T01:23:29.032Z,86.81
2023-04-18T01:25:56.941Z,87.01
2023-04-18T01:28:27.914Z,86.88
2023-04-18T01:30:57.181Z,86.48
2023-04-18T01:33:25.016Z,86.96
2023-04-18T01:35:53.016Z,86.42
2023-04-18T01:38:20.970Z,86.21
2023-04-18T01:40:49.565Z,85.85
2023-04-18T01:43:17.550Z,85.75
2023-04-18T01:45:45.610Z,85.86
2023-04-18T01:48:13.662Z,85.61
2023-04-18T01:50:43.005Z,86.19
2023-04-18T01:53:11.824Z,86.38
2023-04-18T01:55:39.908Z,86.00
2023-04-18T01:58:07.947Z,85.84
2023-04-18T02:00:37.690Z,85.72
2023-04-18T02:03:07.009Z,87.09
2023-04-18T02:05:37.758Z,87.42
2023-04-18T02:08:08.617Z,87.36
2023-04-18T02:10:39.258Z,87.65
2023-04-18T02:13:07.364Z,87.67
2023-04-18T02:15:35.886Z,87.88
2023-04-18T02:18:04.132Z,88.13
2023-04-18T02:20:33.889Z,87.31
2023-04-18T02:23:03.614Z,86.98
2023-04-18T02:25:31.701Z,86.98
2023-04-18T02:27:59.951Z,86.47
2023-04-18T02:30:27.883Z,86.45
2023-04-18T02:32:59.533Z,86.37
2023-04-18T02:35:28.355Z,86.37
2023-04-18T02:47:24.319Z,88.47
2023-04-18T02:49:52.249Z,88.37
2023-04-18T02:55:37.780Z,89.21
2023-04-18T02:58:06.172Z,88.63
2023-04-18T03:00:39.941Z,89.28
2023-04-18T03:03:11.113Z,89.36
2023-04-18T03:05:53.679Z,89.39
2023-04-18T03:08:21.628Z,90.18
2023-04-18T03:10:49.890Z,91.90
2023-04-18T03:13:21.419Z,91.32
2023-04-18T03:15:49.633Z,90.78
2023-04-18T03:18:17.862Z,91.76
2023-04-18T03:20:45.884Z,90.92
2023-04-18T03:23:13.880Z,90.50
2023-04-18T03:25:41.832Z,90.02
2023-04-18T03:28:10.194Z,91.20
2023-04-18T03:30:38.042Z,91.20
2023-04-18T03:33:07.200Z,90.94
2023-04-18T03:35:35.247Z,91.29
2023-04-18T03:38:03.230Z,91.17
2023-04-18T03:40:36.206Z,91.34
2023-04-18T03:43:10.963Z,91.55
2023-04-18T03:45:39.120Z,91.02
2023-04-18T03:48:07.505Z,90.75
2023-04-18T03:50:40.543Z,90.96
2023-04-18T03:53:11.461Z,90.40
2023-04-18T03:55:39.752Z,89.37
2023-04-18T03:58:08.376Z,90.19
2023-04-18T04:00:36.595Z,90.25
2023-04-18T04:03:11.114Z,90.02
2023-04-18T04:05:40.987Z,90.61
2023-04-18T04:08:09.129Z,90.39
2023-04-18T04:10:37.423Z,90.25
2023-04-18T04:13:05.543Z,90.76
2023-04-18T04:15:38.712Z,91.29
2023-04-18T04:18:09.161Z,90.90
2023-04-18T04:20:40.422Z,90.75
2023-04-18T04:23:13.831Z,90.79
2023-04-18T04:25:45.674Z,91.00
2023-04-18T04:28:24.805Z,90.67
2023-04-18T04:30:58.425Z,90.36
2023-04-18T04:33:28.774Z,89.12
2023-04-18T04:36:01.454Z,88.78
2023-04-18T04:38:31.960Z,90.06
2023-04-18T04:41:00.371Z,90.64
2023-04-18T04:43:29.403Z,89.33
2023-04-18T04:45:58.280Z,89.09
2023-04-18T04:48:26.333Z,88.29
2023-04-18T04:50:57.074Z,88.70
2023-04-18T04:53:27.274Z,88.14
2023-04-18T04:55:56.753Z,89.47
2023-04-18T04:58:25.071Z,88.96
2023-04-18T05:01:31.385Z,88.60
2023-04-18T05:04:00.381Z,88.67
2023-04-18T05:06:28.548Z,88.75
2023-04-18T05:08:57.765Z,89.26
2023-04-18T05:11:25.856Z,89.27
2023-04-18T05:13:53.784Z,88.40
2023-04-18T05:16:22.004Z,88.92
2023-04-18T05:18:50.049Z,88.85
2023-04-18T05:21:18.049Z,87.99
2023-04-18T05:23:46.680Z,88.75
2023-04-18T05:26:14.738Z,88.04
2023-04-18T05:28:42.873Z,87.55
2023-04-18T05:31:10.859Z,88.46
2023-04-18T05:33:38.927Z,87.09
2023-04-18T05:36:07.838Z,84.77
2023-04-18T05:38:35.972Z,83.92
2023-04-18T05:41:04.008Z,83.63
2023-04-18T05:43:32.094Z,83.71
2023-04-18T05:46:00.045Z,82.98
2023-04-18T05:48:28.157Z,84.55
2023-04-18T05:50:56.374Z,83.42
2023-04-18T05:53:24.356Z,81.38
2023-04-18T05:55:52.400Z,82.16
2023-04-18T05:58:20.523Z,84.50
2023-04-18T06:00:48.523Z,84.91
2023-04-18T06:03:16.934Z,84.10
2023-04-18T06:05:45.363Z,84.73
2023-04-18T06:08:13.487Z,83.91
2023-04-18T06:10:41.586Z,82.47
2023-04-18T06:13:09.739Z,80.63
2023-04-18T06:15:37.871Z,81.01
2023-04-18T06:18:05.903Z,81.00
2023-04-18T06:20:34.470Z,81.47
2023-04-18T06:23:02.453Z,81.71
2023-04-18T06:25:30.497Z,79.71
2023-04-18T06:27:58.394Z,78.98
2023-04-18T06:30:26.513Z,79.60
2023-04-18T06:32:54.485Z,77.98
2023-04-18T06:35:23.272Z,78.68
2023-04-18T06:37:52.760Z,78.09
2023-04-18T06:40:20.673Z,76.92
2023-04-18T06:42:48.934Z,77.06
2023-04-18T06:45:16.900Z,75.08
2023-04-18T06:47:45.228Z,75.19
2023-04-18T06:50:14.408Z,72.93
2023-04-18T06:52:45.719Z,71.13
2023-04-18T06:55:14.159Z,72.26
2023-04-18T06:57:42.885Z,71.42
2023-04-18T07:00:10.920Z,70.49
2023-04-18T07:02:40.152Z,69.28
2023-04-18T07:05:08.800Z,70.04
2023-04-18T07:07:45.770Z,71.85
2023-04-18T07:10:13.946Z,72.54
2023-04-18T07:12:41.918Z,71.73
2023-04-18T07:15:10.663Z,74.23
2023-04-18T07:17:38.715Z,73.66
2023-04-18T07:20:07.565Z,73.31
2023-04-18T07:22:35.509Z,73.13
2023-04-18T07:25:03.913Z,74.03
2023-04-18T07:27:31.825Z,73.62
2023-04-18T07:29:59.837Z,74.97
2023-04-18T07:32:27.906Z,74.09
2023-04-18T07:34:57.642Z,73.69
2023-04-18T07:37:26.458Z,74.07
2023-04-18T07:39:54.715Z,74.14
2023-04-18T07:42:22.774Z,73.90
2023-04-18T07:44:50.793Z,73.06
2023-04-18T07:47:22.356Z,73.11
2023-04-18T07:49:51.081Z,72.82
2023-04-18T07:52:19.250Z,72.38
2023-04-18T07:54:47.290Z,71.72
2023-04-18T07:57:15.690Z,71.13
2023-04-18T07:59:43.645Z,71.19
2023-04-18T08:02:11.889Z,70.98
2023-04-18T08:04:40.096Z,70.87
2023-04-18T08:07:08.278Z,71.09
2023-04-18T08:09:36.328Z,70.53
2023-04-18T08:12:04.504Z,71.82
2023-04-18T08:14:32.601Z,72.43
2023-04-18T08:17:00.510Z,72.37
2023-04-18T08:19:28.463Z,73.20
2023-04-18T08:22:09.462Z,70.58
2023-04-18T08:24:44.532Z,70.09
2023-04-18T08:27:19.266Z,69.82
2023-04-18T08:29:47.373Z,69.46
2023-04-18T08:32:15.327Z,69.58
2023-04-18T08:34:43.722Z,68.90
2023-04-18T08:37:11.775Z,70.63
2023-04-18T08:39:39.740Z,69.73
2023-04-18T08:42:10.635Z,69.22
2023-04-18T08:44:38.630Z,68.08
2023-04-18T08:47:10.079Z,67.95
2023-04-18T08:49:38.484Z,67.47
2023-04-18T08:52:14.236Z,64.98
2023-04-18T08:54:43.383Z,64.53
2023-04-18T08:57:12.826Z,63.49
2023-04-18T08:59:43.205Z,63.41
2023-04-18T09:02:13.590Z,63.96
2023-04-18T09:04:49.391Z,63.98
2023-04-18T09:07:18.914Z,64.76
2023-04-18T09:09:48.057Z,62.45
2023-04-18T09:12:22.877Z,59.89
2023-04-18T09:14:58.040Z,55.96
2023-04-18T09:17:43.953Z,52.84
2023-04-18T09:20:15.648Z,47.91
2023-04-18T09:22:52.167Z,44.90
2023-04-18T09:25:30.802Z,44.09
2023-04-18T09:28:01.108Z,47.25
2023-04-18T09:30:38.234Z,43.75
2023-04-18T09:33:11.774Z,43.21
2023-04-18T09:35:39.829Z,43.76
2023-04-18T09:38:08.363Z,43.15
2023-04-18T09:40:36.210Z,45.56
2023-04-18T09:43:22.146Z,47.00
2023-04-18T09:45:50.843Z,49.08
2023-04-18T09:48:18.578Z,50.46
2023-04-18T09:50:47.735Z,53.18
2023-04-18T09:53:21.057Z,53.74
2023-04-18T09:55:57.480Z,54.84
2023-04-18T09:58:29.564Z,56.01
2023-04-18T10:00:58.348Z,56.58
2023-04-18T10:03:33.161Z,56.44
2023-04-18T10:06:01.444Z,57.59
2023-04-18T10:08:29.637Z,58.84
2023-04-18T10:10:59.065Z,59.37
2023-04-18T10:13:28.946Z,58.28
2023-04-18T10:15:57.507Z,59.16
2023-04-18T10:18:25.720Z,59.63
2023-04-18T10:21:03.346Z,60.31
2023-04-18T10:23:31.369Z,61.09
2023-04-18T10:25:59.634Z,60.47
2023-04-18T10:28:28.390Z,58.03
2023-04-18T10:31:05.991Z,57.05
2023-04-18T10:33:40.940Z,57.16
2023-04-18T10:36:10.688Z,55.94
2023-04-18T10:38:50.269Z,55.58
2023-04-18T10:41:25.522Z,53.67
2023-04-18T10:44:23.359Z,53.87
2023-04-18T10:46:51.780Z,52.06
2023-04-18T10:49:31.095Z,50.75
2023-04-18T10:52:02.080Z,49.72
2023-04-18T10:54:33.194Z,51.20
2023-04-18T10:57:03.867Z,52.50
2023-04-18T10:59:33.952Z,54.08
2023-04-18T11:02:24.507Z,52.62
2023-04-18T11:04:54.838Z,53.44
2023-04-18T11:07:40.353Z,53.48
2023-04-18T11:10:09.938Z,51.46
2023-04-18T11:12:40.182Z,49.15
2023-04-18T11:15:21.973Z,47.47
2023-04-18T11:17:58.506Z,47.60
2023-04-18T11:20:27.295Z,50.18
2023-04-18T11:23:00.364Z,52.25
2023-04-18T11:25:34.807Z,51.99
2023-04-18T11:28:04.518Z,55.69
2023-04-18T11:30:40.351Z,56.24
2023-04-18T11:33:09.809Z,58.34
2023-04-18T11:35:42.473Z,58.59
2023-04-18T11:38:13.200Z,56.64
2023-04-18T11:40:48.704Z,58.84
2023-04-18T11:43:21.776Z,57.31
2023-04-18T11:45:57.963Z,56.93
2023-04-18T11:48:42.730Z,57.56
2023-04-18T11:51:38.932Z,58.51
2023-04-18T11:54:40.210Z,58.09
2023-04-18T11:57:22.224Z,58.04
2023-04-18T11:59:55.335Z,57.11
2023-04-18T12:02:26.029Z,57.84
2023-04-18T12:04:59.522Z,57.34
2023-04-18T12:07:42.407Z,58.28
2023-04-18T12:10:28.687Z,58.67
2023-04-18T12:13:00.346Z,57.73
2023-04-18T12:15:30.261Z,58.13
2023-04-18T12:18:05.380Z,58.64
2023-04-18T12:20:39.109Z,57.97
2023-04-18T12:23:08.738Z,57.53
2023-04-18T12:25:37.111Z,58.07
2023-04-18T12:28:15.568Z,58.28
2023-04-18T12:30:43.597Z,58.10
2023-04-18T12:33:11.562Z,57.37
2023-04-18T12:35:39.561Z,58.67
2023-04-18T12:38:07.424Z,59.11
2023-04-18T12:40:35.398Z,58.68
2023-04-18T12:43:04.053Z,58.22
2023-04-18T12:45:32.241Z,57.88
2023-04-18T12:48:00.184Z,56.77
2023-04-18T12:50:28.241Z,56.19
2023-04-18T12:53:00.268Z,55.28
2023-04-18T12:55:29.445Z,55.93
2023-04-18T12:57:58.348Z,55.34
2023-04-18T13:00:29.244Z,54.53
2023-04-18T13:02:58.303Z,52.04
2023-04-18T13:05:32.579Z,54.03
2023-04-18T13:10:33.057Z,52.55
2023-04-18T13:13:01.215Z,52.64
2023-04-18T13:15:29.366Z,53.25
2023-04-18T13:17:57.612Z,53.43
2023-04-18T13:20:25.716Z,54.90
2023-04-18T13:22:53.755Z,54.21
2023-04-18T13:25:21.943Z,54.47
2023-04-18T13:27:52.627Z,54.92
2023-04-18T13:30:20.718Z,55.18
2023-04-18T13:32:48.886Z,55.60
2023-04-18T13:35:16.937Z,55.02
2023-04-18T13:37:44.909Z,55.71
2023-04-18T13:40:13.329Z,55.08
2023-04-18T13:42:41.296Z,54.91
2023-04-18T13:45:09.565Z,55.34
2023-04-18T13:47:37.953Z,55.81
2023-04-18T13:50:06.873Z,55.88
2023-04-18T13:52:35.497Z,55.46
2023-04-18T13:55:04.190Z,57.07
2023-04-18T13:57:33.470Z,57.88
2023-04-18T14:00:01.607Z,58.86
2023-04-18T14:02:41.956Z,59.59
2023-04-18T14:05:10.912Z,61.48
2023-04-18T14:07:38.984Z,62.72
2023-04-18T14:10:07.672Z,62.86
2023-04-18T14:13:01.410Z,64.38
2023-04-18T14:15:29.476Z,65.91
2023-04-18T14:17:57.506Z,65.51
2023-04-18T14:20:26.833Z,65.65
2023-04-18T14:22:54.689Z,65.59
2023-04-18T14:25:23.271Z,65.83
2023-04-18T14:28:04.266Z,66.11
2023-04-18T14:30:32.495Z,65.42
2023-04-18T14:33:00.980Z,64.55
2023-04-18T14:35:29.435Z,64.65
2023-04-18T14:37:57.531Z,64.08
2023-04-18T14:40:25.662Z,64.00
2023-04-18T14:42:53.706Z,63.19
2023-04-18T14:45:22.579Z,64.24
2023-04-18T14:47:51.311Z,65.28
2023-04-18T14:50:19.874Z,65.28
2023-04-18T14:52:47.903Z,64.42
2023-04-18T14:55:16.670Z,63.01
2023-04-18T14:57:45.012Z,64.50
2023-04-18T15:00:15.071Z,64.54
2023-04-18T15:02:43.947Z,64.36
2023-04-18T15:05:13.149Z,64.31
2023-04-18T15:07:43.173Z,64.84
2023-04-18T15:10:15.603Z,65.59
2023-04-18T15:12:43.756Z,64.70
2023-04-18T15:15:11.961Z,66.89
2023-04-18T15:17:40.760Z,66.68
2023-04-18T15:20:10.041Z,66.89
2023-04-18T15:22:38.466Z,67.87
2023-04-18T15:25:07.697Z,67.16
2023-04-18T15:27:36.590Z,69.00
2023-04-18T15:30:05.585Z,68.58
2023-04-18T15:32:34.069Z,68.78
2023-04-18T15:35:03.424Z,68.91
2023-04-18T15:37:31.907Z,68.08
2023-04-18T15:40:01.052Z,68.40
2023-04-18T15:42:30.683Z,69.33
2023-04-18T15:44:59.163Z,71.52
2023-04-18T15:47:27.504Z,71.15
2023-04-18T15:49:55.641Z,71.56
2023-04-18T15:52:23.881Z,71.22
2023-04-18T15:54:52.987Z,71.15
2023-04-18T15:57:22.093Z,71.52
2023-04-18T15:59:50.608Z,72.26
2023-04-18T16:02:19.095Z,72.39
2023-04-18T16:04:47.390Z,72.31
2023-04-18T16:07:16.713Z,72.20
2023-04-18T16:09:45.519Z,71.06
2023-04-18T16:12:13.873Z,70.81
2023-04-18T16:14:42.061Z,71.36
2023-04-18T16:17:10.056Z,70.95
2023-04-18T16:19:40.329Z,70.88
2023-04-18T16:22:08.992Z,71.32
2023-04-18T16:24:37.230Z,71.23
2023-04-18T16:27:06.081Z,70.49
2023-04-18T16:29:35.160Z,71.36
2023-04-18T16:32:04.018Z,71.55
2023-04-18T16:34:34.591Z,70.78
2023-04-18T16:37:03.203Z,70.42
2023-04-18T16:39:31.602Z,70.43
2023-04-18T16:42:00.129Z,69.98
2023-04-18T16:44:29.550Z,69.11
2023-04-18T16:46:59.251Z,70.07
2023-04-18T16:49:28.066Z,70.03
2023-04-18T16:51:56.454Z,70.12
2023-04-18T16:54:24.820Z,69.74
2023-04-18T16:56:53.354Z,70.19
2023-04-18T16:59:22.213Z,69.80
2023-04-18T17:01:50.508Z,70.50
2023-04-18T17:04:18.910Z,70.15
2023-04-18T17:06:47.278Z,70.30
2023-04-18T17:09:15.896Z,70.28
2023-04-18T17:11:44.457Z,70.10
2023-04-18T17:14:13.081Z,70.21
2023-04-18T17:16:42.599Z,69.73
2023-04-18T17:19:11.757Z,69.83
2023-04-18T17:21:40.354Z,69.53
2023-04-18T17:24:09.576Z,69.73
2023-04-18T17:26:39.291Z,69.06
2023-04-18T17:29:07.836Z,69.15
2023-04-18T17:31:36.973Z,69.58
2023-04-18T17:34:06.321Z,68.70
2023-04-18T17:36:34.884Z,68.87
2023-04-18T17:39:06.877Z,68.51
2023-04-18T17:41:39.683Z,68.52
2023-04-18T17:44:08.719Z,69.03
2023-04-18T17:46:37.323Z,69.00
2023-04-18T17:49:05.959Z,68.48
2023-04-18T17:51:35.041Z,68.88
2023-04-18T17:54:03.495Z,68.91
2023-04-18T17:56:32.241Z,70.09
2023-04-18T17:59:00.949Z,71.04
2023-04-18T18:01:30.714Z,70.46
2023-04-18T18:03:59.364Z,70.10
2023-04-18T18:06:28.259Z,70.95
2023-04-18T18:08:57.051Z,69.90
2023-04-18T18:11:25.490Z,69.99
2023-04-18T18:13:55.976Z,68.57
2023-04-18T18:16:24.943Z,69.42
2023-04-18T18:18:53.639Z,70.30
2023-04-18T18:21:21.983Z,69.70
2023-04-18T18:23:50.202Z,72.44
2023-04-18T18:26:18.742Z,72.82
2023-04-18T18:28:48.578Z,72.60
2023-04-18T18:31:17.843Z,72.22
2023-04-18T18:33:46.382Z,72.42
2023-04-18T18:36:14.816Z,73.22
2023-04-18T18:38:43.991Z,72.29
2023-04-18T18:41:12.633Z,72.44
2023-04-18T18:43:41.218Z,72.72
2023-04-18T18:46:10.065Z,74.42
2023-04-18T18:48:39.431Z,74.58
2023-04-18T18:51:08.669Z,74.16
2023-04-18T18:53:38.400Z,73.59
2023-04-18T18:56:09.240Z,74.10
2023-04-18T18:58:37.659Z,74.77
2023-04-18T19:01:07.132Z,74.28
2023-04-18T19:03:36.097Z,74.79
2023-04-18T19:06:06.308Z,73.97
2023-04-18T19:08:35.640Z,73.41
2023-04-18T19:11:04.795Z,74.82
2023-04-18T19:13:33.733Z,75.74
2023-04-18T19:16:02.291Z,76.23
2023-04-18T19:18:31.388Z,75.72
2023-04-18T19:20:59.735Z,76.06
2023-04-18T19:23:28.138Z,75.28
2023-04-18T19:25:57.141Z,75.56
2023-04-18T19:28:26.223Z,75.76
2023-04-18T19:30:54.752Z,73.68
2023-04-18T19:33:24.875Z,73.57
2023-04-18T19:36:02.158Z,74.67
2023-04-18T19:38:31.112Z,74.87
2023-04-18T19:40:59.420Z,75.14
2023-04-18T19:43:27.660Z,74.84
2023-04-18T19:46:05.292Z,76.06
2023-04-18T19:48:33.792Z,76.30
2023-04-18T19:51:04.294Z,75.45
2023-04-18T19:53:32.592Z,75.27
2023-04-18T19:56:02.046Z,75.43
2023-04-18T19:58:45.300Z,75.33
2023-04-18T20:01:15.525Z,75.92
2023-04-18T20:03:44.493Z,75.54
2023-04-18T20:06:13.396Z,74.93
2023-04-18T20:08:42.212Z,74.98
2023-04-18T20:11:11.997Z,74.93
2023-04-18T20:13:40.563Z,75.24
2023-04-18T20:16:09.860Z,75.36
2023-04-18T20:18:41.934Z,75.45
2023-04-18T20:21:11.314Z,75.01
2023-04-18T20:23:42.371Z,75.99
2023-04-18T20:26:10.811Z,74.97
2023-04-18T20:28:39.097Z,74.63
2023-04-18T20:31:07.506Z,75.36
2023-04-18T20:33:36.759Z,74.34
2023-04-18T20:36:06.658Z,74.54
2023-04-18T20:38:34.775Z,74.13
2023-04-18T20:41:03.530Z,74.88
2023-04-18T20:43:36.780Z,75.00
2023-04-18T20:46:05.129Z,74.88
2023-04-18T20:48:33.342Z,74.38
2023-04-18T20:51:01.804Z,75.04
2023-04-18T20:53:30.006Z,74.85
2023-04-18T20:55:57.985Z,74.85
2023-04-18T20:58:26.308Z,75.42
2023-04-18T21:00:54.639Z,74.40
2023-04-18T21:03:23.084Z,74.02
2023-04-18T21:05:51.735Z,73.63
2023-04-18T21:08:20.277Z,73.66
2023-04-18T21:10:48.383Z,73.68
2023-04-18T21:13:16.582Z,73.98
2023-04-18T21:15:44.998Z,74.62
2023-04-18T21:18:13.162Z,74.44
2023-04-18T21:20:41.103Z,74.34
2023-04-18T21:23:09.338Z,74.94
2023-04-18T21:25:37.465Z,74.79
2023-04-18T21:28:05.591Z,74.82
2023-04-18T21:30:34.527Z,74.89
2023-04-18T21:33:03.030Z,74.93
2023-04-18T21:35:31.270Z,74.84
2023-04-18T21:37:59.267Z,74.93
2023-04-18T21:40:27.299Z,74.88
2023-04-18T21:42:55.300Z,74.99
2023-04-18T21:45:23.688Z,75.29
2023-04-18T21:47:52.891Z,75.17
2023-04-18T21:50:21.063Z,75.49
2023-04-18T21:52:49.183Z,75.71
2023-04-18T21:55:18.250Z,75.42
2023-04-18T21:57:46.194Z,74.98
2023-04-18T22:00:14.607Z,74.69
2023-04-18T22:06:04.717Z,75.73
2023-04-18T22:08:36.439Z,75.59
2023-04-18T22:11:05.038Z,75.66
2023-04-18T22:13:33.353Z,75.88
2023-04-18T22:16:03.463Z,76.05
2023-04-18T22:18:35.268Z,76.00
2023-04-18T22:21:04.494Z,76.49
2023-04-18T22:23:32.525Z,76.14
2023-04-18T22:26:00.588Z,77.17
2023-04-18T22:28:31.167Z,77.24
2023-04-18T22:30:59.136Z,77.27
2023-04-18T22:33:27.425Z,77.14
2023-04-18T22:35:55.873Z,76.53
2023-04-18T22:38:27.802Z,76.72
2023-04-18T22:40:55.888Z,77.40
2023-04-18T22:43:25.063Z,77.20
2023-04-18T22:45:53.425Z,77.45
2023-04-18T22:48:21.447Z,77.94
2023-04-18T22:50:50.135Z,77.83
2023-04-18T22:53:18.205Z,78.40
2023-04-18T22:55:46.765Z,78.62
2023-04-18T22:58:15.008Z,77.59
2023-04-18T23:00:43.093Z,78.03
2023-04-18T23:03:11.426Z,78.36
2023-04-18T23:05:40.461Z,78.14
2023-04-18T23:08:08.887Z,79.02
2023-04-18T23:10:36.788Z,79.06
2023-04-18T23:13:04.855Z,79.22
2023-04-18T23:15:32.903Z,79.02
2023-04-18T23:18:01.156Z,78.55
2023-04-18T23:20:29.105Z,78.96
2023-04-18T23:22:57.059Z,78.80
2023-04-18T23:25:24.994Z,78.95
2023-04-18T23:27:52.914Z,78.68
2023-04-18T23:30:20.828Z,78.99
2023-04-18T23:32:48.838Z,78.30
2023-04-18T23:35:16.931Z,78.95
2023-04-18T23:37:44.842Z,78.52
2023-04-18T23:40:12.699Z,78.72
2023-04-18T23:42:40.708Z,78.42
2023-04-18T23:45:08.748Z,78.80
2023-04-18T23:47:36.703Z,78.95
2023-04-18T23:50:05.248Z,78.23
2023-04-18T23:52:33.048Z,78.04
2023-04-18T23:55:01.427Z,78.00
2023-04-18T23:57:29.455Z,78.14
2023-04-18T23:59:57.852Z,78.22
